Time;durP1;ratioP1;P1;durP2;ratioP2;P2;SDS_P1;SDS_P2;PMS_P1;PMS_P2;Temp;Humidity;BMP_temperature;BMP_pressure;BME280_temperature;BME280_humidity;BME280_pressure;Samples;Min_cycle;Max_cycle;Signal;HPM_P1;HPM_P2
2023/02/07 21:33:18;;;;;;;;;;;;;;;4.42;72.88;102682.23;142042;1288;636033;-89
2023/02/07 21:36:40;;;;;;;23.20;14.50;;;;;;;4.64;72.37;102687.46;144881;1262;94345;-89
2023/02/07 21:40:03;;;;;;;22.80;13.90;;;;;;;4.79;71.63;102685.65;144731;1264;94244;-87
2023/02/07 21:43:24;;;;;;;20.50;13.60;;;;;;;4.99;71.65;102684.61;145049;1259;94646;-90
2023/02/07 21:46:51;;;;;;;24.20;11.30;;;;;;;5.22;71.43;102685.77;144959;1256;171799;-90
2023/02/07 21:50:14;;;;;;;16.60;9.90;;;;;;;5.45;70.94;102684.60;145092;1259;94814;-88
2023/02/07 21:53:36;;;;;;;15.50;9.30;;;;;;;5.67;70.23;102685.79;144900;1259;94267;-88
2023/02/07 21:57:12;;;;;;;15.20;8.70;;;;;;;5.88;69.85;102691.13;144703;1263;94280;-89
2023/02/07 22:00:34;;;;;;;17.80;8.70;;;;;;;6.06;69.33;102693.09;144794;1262;94338;-83
2023/02/07 22:03:58;;;;;;;15.10;8.90;;;;;;;6.22;69.12;102690.56;144864;1260;94362;-84
2023/02/07 22:07:20;;;;;;;13.70;8.50;;;;;;;6.37;68.51;102689.31;144627;1262;109340;-86
2023/02/07 22:10:43;;;;;;;16.70;9.60;;;;;;;6.50;68.23;102691.66;144443;1266;95285;-86
2023/02/07 22:14:11;;;;;;;17.70;8.20;;;;;;;6.60;67.72;102689.20;144723;1260;95215;-84
2023/02/07 22:17:33;;;;;;;14.50;8.60;;;;;;;6.71;67.17;102694.48;144748;1260;109001;-85
2023/02/07 22:21:10;;;;;;;18.10;9.70;;;;;;;6.79;66.78;102698.58;144619;1260;107438;-83
2023/02/07 22:24:32;;;;;;;16.50;9.50;;;;;;;6.87;66.34;102702.48;144694;1259;108025;-80
2023/02/07 22:27:54;;;;;;;13.20;8.40;;;;;;;6.94;65.90;102708.34;144684;1265;95220;-82
2023/02/07 22:31:19;;;;;;;20.90;10.40;;;;;;;6.99;65.62;102712.52;145026;1264;95330;-81
2023/02/07 22:34:41;;;;;;;14.80;9.50;;;;;;;7.04;65.03;102710.83;144714;1260;102014;-81
2023/02/07 22:38:03;;;;;;;12.30;8.40;;;;;;;7.08;64.78;102715.62;144658;1263;95250;-81
2023/02/07 22:41:25;;;;;;;12.70;8.00;;;;;;;7.12;64.42;102720.59;144701;1262;95328;-86
2023/02/07 22:44:47;;;;;;;13.10;8.70;;;;;;;7.14;64.28;102729.42;144690;1261;108724;-84
2023/02/07 22:48:09;;;;;;;15.70;9.00;;;;;;;7.17;63.79;102723.89;144567;1264;95262;-85
2023/02/07 22:51:34;;;;;;;16.10;9.30;;;;;;;7.19;63.59;102721.48;144604;1263;95315;-85
2023/02/07 22:54:55;;;;;;;16.70;10.10;;;;;;;7.22;63.35;102725.96;144644;1260;95989;-86
2023/02/07 22:58:18;;;;;;;15.60;8.70;;;;;;;7.24;62.90;102729.95;144632;1260;95225;-87
2023/02/07 23:01:41;;;;;;;16.50;9.20;;;;;;;7.26;62.75;102735.80;144501;1264;96245;-87
2023/02/07 23:05:03;;;;;;;14.80;8.90;;;;;;;7.27;62.58;102736.59;144518;1262;95291;-85
2023/02/07 23:08:25;;;;;;;14.70;8.80;;;;;;;7.28;62.43;102734.74;144636;1260;95207;-85
2023/02/07 23:11:48;;;;;;;14.30;8.70;;;;;;;7.29;62.15;102730.51;144622;1264;96142;-86
2023/02/07 23:15:10;;;;;;;12.70;8.00;;;;;;;7.30;61.97;102731.79;144514;1260;96204;-86
2023/02/07 23:18:32;;;;;;;12.90;9.50;;;;;;;7.30;61.74;102730.77;144617;1263;109580;-86
2023/02/07 23:21:57;;;;;;;15.70;9.40;;;;;;;7.31;61.60;102736.56;144635;1263;96142;-84
2023/02/07 23:25:19;;;;;;;15.10;8.60;;;;;;;7.31;61.32;102737.08;144727;1260;95651;-85
2023/02/07 23:28:42;;;;;;;15.40;8.90;;;;;;;7.31;61.24;102736.93;144627;1264;95460;-84
2023/02/07 23:32:04;;;;;;;16.30;10.00;;;;;;;7.32;60.98;102738.16;144830;1260;96115;-84
2023/02/07 23:35:26;;;;;;;16.60;8.90;;;;;;;7.31;60.85;102735.02;144908;1257;95308;-86
2023/02/07 23:38:48;;;;;;;16.60;9.70;;;;;;;7.32;60.70;102731.91;144802;1260;102185;-85
2023/02/07 23:42:10;;;;;;;12.10;8.30;;;;;;;7.32;60.65;102731.39;144982;1262;95299;-85
2023/02/07 23:45:32;;;;;;;14.70;7.90;;;;;;;7.32;60.34;102735.75;144940;1271;96139;-86
2023/02/07 23:48:54;;;;;;;12.10;8.60;;;;;;;7.31;60.30;102733.48;144814;1260;107892;-85
2023/02/07 23:52:16;;;;;;;15.00;9.60;;;;;;;7.31;60.26;102735.34;144746;1257;95623;-85
2023/02/07 23:55:42;;;;;;;12.80;8.00;;;;;;;7.31;60.15;102737.45;144957;1260;96216;-86
2023/02/07 23:59:04;;;;;;;15.10;9.00;;;;;;;7.32;59.77;102742.32;144902;1261;95303;-86
